createdAt,value
2023-03-30T00:01:52.006Z,20.75
2023-03-30T00:06:54.867Z,20.76
2023-03-30T00:12:02.787Z,20.74
2023-03-30T00:17:05.931Z,20.75
2023-03-30T00:22:09.723Z,20.74
2023-03-30T00:27:14.060Z,20.74
2023-03-30T00:32:16.955Z,20.73
2023-03-30T00:37:20.111Z,20.73
2023-03-30T00:42:25.534Z,20.73
2023-03-30T00:47:29.497Z,20.72
2023-03-30T00:52:33.305Z,20.71
2023-03-30T00:57:40.403Z,20.71
2023-03-30T01:02:46.206Z,20.71
2023-03-30T01:07:49.900Z,20.70
2023-03-30T01:12:55.084Z,20.70
2023-03-30T01:18:08.835Z,20.69
2023-03-30T01:23:37.763Z,20.70
2023-03-30T01:28:46.884Z,20.69
2023-03-30T01:34:04.685Z,20.70
2023-03-30T01:39:22.628Z,20.69
2023-03-30T01:44:31.669Z,20.69
2023-03-30T01:49:39.422Z,20.70
2023-03-30T01:54:46.875Z,20.68
2023-03-30T01:59:54.517Z,20.67
2023-03-30T02:04:59.288Z,20.67
2023-03-30T02:10:07.115Z,20.67
2023-03-30T02:15:11.761Z,20.67
2023-03-30T02:20:16.823Z,20.66
2023-03-30T02:25:21.008Z,20.67
2023-03-30T02:30:23.885Z,20.66
2023-03-30T02:35:45.823Z,20.66
2023-03-30T02:40:57.042Z,20.65
2023-03-30T02:46:15.158Z,20.63
2023-03-30T02:51:32.517Z,20.63
2023-03-30T02:56:42.533Z,20.63
2023-03-30T03:01:48.429Z,20.63
2023-03-30T03:06:53.174Z,20.63
2023-03-30T03:11:57.457Z,20.63
2023-03-30T03:17:00.419Z,20.61
2023-03-30T03:22:03.715Z,20.60
2023-03-30T03:27:08.635Z,20.61
2023-03-30T03:32:11.502Z,20.60
2023-03-30T03:37:14.428Z,20.61
2023-03-30T03:42:18.686Z,20.59
2023-03-30T03:47:23.083Z,20.59
2023-03-30T03:52:25.971Z,20.59
2023-03-30T03:57:30.843Z,20.58
2023-03-30T04:02:35.424Z,20.59
2023-03-30T04:07:39.816Z,20.58
2023-03-30T04:12:44.702Z,20.58
2023-03-30T04:17:49.944Z,20.60
2023-03-30T04:22:53.537Z,20.61
2023-03-30T04:27:58.479Z,20.58
2023-03-30T04:33:07.427Z,20.57
2023-03-30T04:38:11.076Z,20.58
2023-03-30T04:43:15.298Z,20.61
2023-03-30T04:48:18.168Z,20.67
2023-03-30T04:53:23.112Z,20.69
2023-03-30T04:58:27.278Z,20.70
2023-03-30T05:03:30.610Z,20.70
2023-03-30T05:08:34.285Z,20.68
2023-03-30T05:13:40.664Z,20.72
2023-03-30T05:18:43.536Z,20.71
2023-03-30T05:23:46.440Z,20.69
2023-03-30T05:28:51.389Z,20.72
2023-03-30T05:33:54.582Z,20.76
2023-03-30T05:38:59.052Z,20.70
2023-03-30T05:44:03.621Z,20.67
2023-03-30T05:49:06.590Z,20.66
2023-03-30T05:54:11.929Z,20.68
2023-03-30T05:59:16.395Z,20.65
2023-03-30T06:04:19.412Z,20.64
2023-03-30T06:09:24.062Z,20.68
2023-03-30T06:14:28.477Z,20.71
2023-03-30T06:19:31.375Z,20.73
2023-03-30T06:24:34.189Z,20.73
2023-03-30T06:29:38.421Z,20.74
2023-03-30T06:34:41.218Z,20.76
2023-03-30T06:39:45.928Z,20.77
2023-03-30T06:44:50.170Z,20.77
2023-03-30T06:49:53.072Z,20.77
2023-03-30T06:54:55.880Z,20.75
2023-03-30T07:00:00.135Z,20.71
2023-03-30T07:05:03.067Z,20.71
2023-03-30T07:10:10.264Z,20.74
2023-03-30T07:15:16.241Z,20.76
2023-03-30T07:20:20.582Z,20.89
2023-03-30T07:25:23.854Z,21.08
2023-03-30T07:30:28.302Z,21.17
2023-03-30T07:35:31.394Z,21.22
2023-03-30T07:40:34.478Z,21.27
2023-03-30T07:45:39.272Z,21.31
2023-03-30T07:50:42.610Z,21.31
2023-03-30T07:55:45.928Z,21.33
2023-03-30T08:00:50.086Z,21.30
2023-03-30T08:05:54.929Z,21.14
2023-03-30T08:10:57.929Z,21.08
2023-03-30T08:16:02.190Z,21.09
2023-03-30T08:21:05.485Z,21.04
2023-03-30T08:26:09.459Z,21.07
2023-03-30T08:31:13.840Z,21.09
2023-03-30T08:36:17.890Z,21.11
2023-03-30T08:41:45.717Z,21.29
2023-03-30T08:46:51.312Z,21.32
2023-03-30T08:51:57.100Z,21.42
2023-03-30T08:57:07.232Z,21.56
2023-03-30T09:02:17.578Z,21.62
2023-03-30T09:07:23.617Z,21.73
2023-03-30T09:12:34.522Z,21.63
2023-03-30T09:17:42.591Z,21.61
2023-03-30T09:22:46.538Z,21.65
2023-03-30T09:27:57.182Z,21.68
2023-03-30T09:33:07.134Z,21.78
2023-03-30T09:38:12.253Z,21.81
2023-03-30T09:43:17.771Z,21.84
2023-03-30T09:48:22.005Z,21.96
2023-03-30T09:53:26.377Z,22.12
2023-03-30T09:58:31.430Z,22.06
2023-03-30T10:03:37.662Z,22.05
2023-03-30T10:08:43.793Z,22.11
2023-03-30T10:13:46.833Z,22.19
2023-03-30T10:18:53.745Z,22.33
2023-03-30T10:24:03.030Z,22.33
2023-03-30T10:29:07.585Z,22.27
2023-03-30T10:34:16.847Z,22.37
2023-03-30T10:39:24.474Z,22.27
2023-03-30T10:44:31.931Z,22.18
2023-03-30T10:49:44.055Z,22.02
2023-03-30T10:54:51.622Z,21.95
2023-03-30T11:00:09.841Z,21.91
2023-03-30T11:05:18.111Z,21.85
2023-03-30T11:10:22.934Z,21.79
2023-03-30T11:15:27.915Z,21.76
2023-03-30T11:20:34.353Z,21.80
2023-03-30T11:25:42.419Z,21.94
2023-03-30T11:30:45.599Z,21.99
2023-03-30T11:35:52.785Z,21.99
2023-03-30T11:40:58.369Z,22.03
2023-03-30T11:46:04.570Z,22.13
2023-03-30T11:51:18.756Z,22.11
2023-03-30T11:56:28.010Z,22.05
2023-03-30T12:01:43.351Z,22.02
2023-03-30T12:06:54.320Z,22.04
2023-03-30T12:12:04.645Z,22.06
2023-03-30T12:17:15.159Z,22.30
2023-03-30T12:22:24.756Z,22.52
2023-03-30T12:27:29.090Z,22.69
2023-03-30T12:32:32.455Z,22.69
2023-03-30T12:37:38.403Z,22.75
2023-03-30T12:42:46.459Z,22.82
2023-03-30T12:48:02.109Z,22.90
2023-03-30T12:53:21.496Z,23.08
2023-03-30T12:58:48.282Z,22.94
2023-03-30T13:03:52.735Z,22.83
2023-03-30T13:09:04.063Z,22.82
2023-03-30T13:14:17.569Z,22.74
2023-03-30T13:19:27.221Z,22.73
2023-03-30T13:24:38.010Z,22.75
2023-03-30T13:29:41.160Z,22.70
2023-03-30T13:35:26.733Z,22.69
2023-03-30T13:40:40.292Z,22.73
2023-03-30T13:45:50.976Z,22.68
2023-03-30T13:50:56.878Z,22.64
2023-03-30T13:56:01.158Z,22.62
2023-03-30T14:01:08.512Z,22.65
2023-03-30T14:06:18.881Z,22.58
2023-03-30T14:11:26.386Z,22.63
2023-03-30T14:16:32.953Z,22.62
2023-03-30T14:21:37.442Z,22.60
2023-03-30T14:26:42.453Z,22.86
2023-03-30T14:31:56.840Z,23.07
2023-03-30T14:37:09.186Z,23.20
2023-03-30T14:42:18.814Z,23.42
2023-03-30T14:47:24.599Z,23.54
2023-03-30T14:52:30.755Z,25.72
2023-03-30T14:57:37.994Z,26.55
2023-03-30T15:02:42.437Z,25.10
2023-03-30T15:07:48.284Z,26.65
2023-03-30T15:12:54.208Z,24.73
2023-03-30T15:17:58.977Z,23.70
2023-03-30T15:23:02.522Z,23.64
2023-03-30T15:28:08.916Z,23.53
2023-03-30T15:33:21.619Z,23.26
2023-03-30T15:38:32.177Z,23.36
2023-03-30T15:43:38.437Z,23.24
2023-03-30T15:48:43.422Z,23.36
2023-03-30T15:53:50.930Z,23.48
2023-03-30T15:58:55.916Z,23.55
2023-03-30T16:04:01.543Z,23.66
2023-03-30T16:09:04.473Z,23.49
2023-03-30T16:14:12.114Z,23.83
2023-03-30T16:19:17.334Z,24.66
2023-03-30T16:24:20.258Z,23.83
2023-03-30T16:29:25.094Z,23.60
2023-03-30T16:34:28.050Z,23.51
2023-03-30T16:39:31.243Z,23.35
2023-03-30T16:44:36.366Z,23.38
2023-03-30T16:49:39.217Z,23.37
2023-03-30T16:54:42.013Z,23.38
2023-03-30T16:59:46.234Z,23.27
2023-03-30T17:04:49.409Z,23.22
2023-03-30T17:09:52.817Z,23.18
2023-03-30T17:14:56.974Z,23.13
2023-03-30T17:20:00.789Z,23.09
2023-03-30T17:25:04.310Z,23.12
2023-03-30T17:30:17.688Z,23.07
2023-03-30T17:35:20.535Z,23.06
2023-03-30T17:40:26.052Z,22.90
2023-03-30T17:45:30.422Z,22.67
2023-03-30T17:50:34.953Z,22.56
2023-03-30T17:55:37.810Z,22.48
2023-03-30T18:00:43.530Z,22.38
2023-03-30T18:05:47.842Z,22.33
2023-03-30T18:10:52.573Z,22.27
2023-03-30T18:15:58.893Z,22.24
2023-03-30T18:21:03.977Z,22.21
2023-03-30T18:26:12.054Z,22.17
2023-03-30T18:31:16.595Z,22.13
2023-03-30T18:36:19.736Z,22.09
2023-03-30T18:41:22.680Z,22.06
2023-03-30T18:46:26.931Z,22.02
2023-03-30T18:51:29.766Z,21.99
2023-03-30T18:56:33.447Z,21.96
2023-03-30T19:01:38.085Z,21.92
2023-03-30T19:06:41.943Z,21.89
2023-03-30T19:11:44.812Z,21.88
2023-03-30T19:16:49.040Z,21.85
2023-03-30T19:21:55.216Z,21.82
2023-03-30T19:26:58.218Z,21.78
2023-03-30T19:32:02.897Z,21.78
2023-03-30T19:37:05.861Z,21.77
2023-03-30T19:42:09.392Z,21.77
2023-03-30T19:47:13.750Z,21.75
2023-03-30T19:52:16.610Z,21.73
2023-03-30T19:57:20.023Z,21.71
2023-03-30T20:02:24.541Z,21.69
2023-03-30T20:07:27.445Z,21.68
2023-03-30T20:12:30.350Z,21.65
2023-03-30T20:17:36.439Z,21.63
2023-03-30T20:22:41.270Z,21.62
2023-03-30T20:27:44.116Z,21.62
2023-03-30T20:33:03.798Z,21.60
2023-03-30T20:38:10.481Z,21.58
2023-03-30T20:43:13.277Z,21.58
2023-03-30T20:48:26.029Z,21.56
2023-03-30T20:53:31.855Z,21.55
2023-03-30T20:58:34.680Z,21.54
2023-03-30T21:03:41.159Z,21.53
2023-03-30T21:08:43.995Z,21.54
2023-03-30T21:13:50.458Z,21.54
2023-03-30T21:18:54.945Z,21.54
2023-03-30T21:23:58.005Z,21.51
2023-03-30T21:29:00.875Z,21.52
2023-03-30T21:34:07.081Z,21.49
2023-03-30T21:39:09.871Z,21.48
2023-03-30T21:44:12.728Z,21.49
2023-03-30T21:49:17.184Z,21.47
2023-03-30T21:54:20.493Z,21.47
2023-03-30T21:59:23.287Z,21.45
2023-03-30T22:04:27.566Z,21.47
2023-03-30T22:09:30.433Z,21.47
2023-03-30T22:14:33.519Z,21.44
2023-03-30T22:19:38.708Z,21.43
2023-03-30T22:24:41.555Z,21.43
2023-03-30T22:29:44.417Z,21.43
2023-03-30T22:34:48.614Z,21.43
2023-03-30T22:39:51.622Z,21.39
2023-03-30T22:44:54.607Z,21.37
2023-03-30T22:49:58.918Z,21.36
2023-03-30T22:55:01.786Z,21.36
2023-03-30T23:00:09.984Z,21.37
2023-03-30T23:05:15.081Z,21.36
2023-03-30T23:10:19.928Z,21.36
2023-03-30T23:15:22.982Z,21.33
2023-03-30T23:20:27.233Z,21.32
2023-03-30T23:25:30.057Z,21.34
2023-03-30T23:30:32.886Z,21.31
2023-03-30T23:35:37.106Z,21.30
2023-03-30T23:40:39.987Z,21.30
2023-03-30T23:45:43.896Z,21.27
2023-03-30T23:50:48.408Z,21.25
2023-03-30T23:55:51.515Z,21.24
